sensor_id;sensor_type;location;lat;lon;timestamp;P1;durP1;ratioP1;P2;durP2;ratioP2
86116;SDS011;76770;0.000;0.000;2024-03-07T00:01:36;3.30;;;1.70;;
86116;SDS011;76770;0.000;0.000;2024-03-07T00:04:02;2.90;;;1.67;;
86116;SDS011;76770;0.000;0.000;2024-03-07T00:06:28;3.22;;;1.65;;
86116;SDS011;76770;0.000;0.000;2024-03-07T00:08:54;3.40;;;1.42;;
86116;SDS011;76770;0.000;0.000;2024-03-07T00:11:20;3.13;;;1.63;;
86116;SDS011;76770;0.000;0.000;2024-03-07T00:13:46;2.83;;;1.50;;
86116;SDS011;76770;0.000;0.000;2024-03-07T00:16:12;3.22;;;1.60;;
86116;SDS011;76770;0.000;0.000;2024-03-07T00:18:38;3.70;;;1.60;;
86116;SDS011;76770;0.000;0.000;2024-03-07T00:21:04;3.15;;;1.50;;
86116;SDS011;76770;0.000;0.000;2024-03-07T00:23:30;2.60;;;1.47;;
86116;SDS011;76770;0.000;0.000;2024-03-07T00:25:57;3.05;;;1.60;;
86116;SDS011;76770;0.000;0.000;2024-03-07T00:28:23;2.78;;;1.55;;
86116;SDS011;76770;0.000;0.000;2024-03-07T00:30:52;2.90;;;1.70;;
86116;SDS011;76770;0.000;0.000;2024-03-07T00:33:18;2.63;;;1.60;;
86116;SDS011;76770;0.000;0.000;2024-03-07T00:35:46;2.65;;;1.40;;
86116;SDS011;76770;0.000;0.000;2024-03-07T00:38:12;2.85;;;1.50;;
86116;SDS011;76770;0.000;0.000;2024-03-07T00:40:38;2.90;;;1.50;;
86116;SDS011;76770;0.000;0.000;2024-03-07T00:43:04;2.80;;;1.50;;
86116;SDS011;76770;0.000;0.000;2024-03-07T00:45:31;2.50;;;1.33;;
86116;SDS011;76770;0.000;0.000;2024-03-07T00:47:57;2.10;;;1.30;;
86116;SDS011;76770;0.000;0.000;2024-03-07T00:50:24;2.63;;;1.40;;
86116;SDS011;76770;0.000;0.000;2024-03-07T00:52:50;2.75;;;1.60;;
86116;SDS011;76770;0.000;0.000;2024-03-07T00:55:16;2.70;;;1.40;;
86116;SDS011;76770;0.000;0.000;2024-03-07T00:57:43;2.53;;;1.50;;
86116;SDS011;76770;0.000;0.000;2024-03-07T01:00:10;2.60;;;1.50;;
86116;SDS011;76770;0.000;0.000;2024-03-07T01:02:39;2.90;;;1.40;;
86116;SDS011;76770;0.000;0.000;2024-03-07T01:05:09;2.35;;;1.30;;
86116;SDS011;76770;0.000;0.000;2024-03-07T01:07:38;2.60;;;1.30;;
86116;SDS011;76770;0.000;0.000;2024-03-07T01:10:05;2.00;;;1.30;;
86116;SDS011;76770;0.000;0.000;2024-03-07T01:12:31;2.28;;;1.30;;
86116;SDS011;76770;0.000;0.000;2024-03-07T01:14:59;2.70;;;1.48;;
86116;SDS011;76770;0.000;0.000;2024-03-07T01:17:25;2.05;;;1.40;;
86116;SDS011;76770;0.000;0.000;2024-03-07T01:19:51;2.08;;;1.20;;
86116;SDS011;76770;0.000;0.000;2024-03-07T01:22:17;2.67;;;1.50;;
86116;SDS011;76770;0.000;0.000;2024-03-07T01:24:44;2.50;;;1.30;;
86116;SDS011;76770;0.000;0.000;2024-03-07T01:27:10;2.08;;;1.23;;
86116;SDS011;76770;0.000;0.000;2024-03-07T01:29:36;2.60;;;1.27;;
86116;SDS011;76770;0.000;0.000;2024-03-07T01:32:01;1.90;;;1.30;;
86116;SDS011;76770;0.000;0.000;2024-03-07T01:34:28;2.90;;;1.30;;
86116;SDS011;76770;0.000;0.000;2024-03-07T01:36:54;2.30;;;1.30;;
86116;SDS011;76770;0.000;0.000;2024-03-07T01:39:20;1.80;;;1.17;;
86116;SDS011;76770;0.000;0.000;2024-03-07T01:41:46;2.45;;;1.40;;
86116;SDS011;76770;0.000;0.000;2024-03-07T01:44:13;2.45;;;1.30;;
86116;SDS011;76770;0.000;0.000;2024-03-07T01:46:39;1.95;;;1.27;;
86116;SDS011;76770;0.000;0.000;2024-03-07T01:49:06;2.17;;;1.25;;
86116;SDS011;76770;0.000;0.000;2024-03-07T01:51:33;2.10;;;1.20;;
86116;SDS011;76770;0.000;0.000;2024-03-07T01:53:59;1.70;;;1.10;;
86116;SDS011;76770;0.000;0.000;2024-03-07T01:56:26;1.98;;;1.10;;
86116;SDS011;76770;0.000;0.000;2024-03-07T01:58:52;1.73;;;1.20;;
86116;SDS011;76770;0.000;0.000;2024-03-07T02:01:19;2.08;;;1.20;;
86116;SDS011;76770;0.000;0.000;2024-03-07T02:03:45;1.98;;;1.17;;
86116;SDS011;76770;0.000;0.000;2024-03-07T02:06:11;2.00;;;1.20;;
86116;SDS011;76770;0.000;0.000;2024-03-07T02:08:37;1.90;;;1.20;;
86116;SDS011;76770;0.000;0.000;2024-03-07T02:11:04;1.95;;;1.20;;
86116;SDS011;76770;0.000;0.000;2024-03-07T02:13:30;1.85;;;1.13;;
86116;SDS011;76770;0.000;0.000;2024-03-07T02:15:57;1.98;;;1.10;;
86116;SDS011;76770;0.000;0.000;2024-03-07T02:18:23;1.90;;;1.15;;
86116;SDS011;76770;0.000;0.000;2024-03-07T02:20:50;1.67;;;1.00;;
86116;SDS011;76770;0.000;0.000;2024-03-07T02:23:16;2.00;;;1.17;;
86116;SDS011;76770;0.000;0.000;2024-03-07T02:25:42;1.75;;;1.08;;
86116;SDS011;76770;0.000;0.000;2024-03-07T02:28:08;1.75;;;1.00;;
86116;SDS011;76770;0.000;0.000;2024-03-07T02:30:34;1.70;;;1.10;;
86116;SDS011;76770;0.000;0.000;2024-03-07T02:33:00;1.90;;;1.13;;
86116;SDS011;76770;0.000;0.000;2024-03-07T02:35:32;1.60;;;1.00;;
86116;SDS011;76770;0.000;0.000;2024-03-07T02:38:00;2.22;;;1.20;;
86116;SDS011;76770;0.000;0.000;2024-03-07T02:40:26;2.10;;;1.15;;
86116;SDS011;76770;0.000;0.000;2024-03-07T02:42:52;1.80;;;1.10;;
86116;SDS011;76770;0.000;0.000;2024-03-07T02:45:18;1.83;;;1.13;;
86116;SDS011;76770;0.000;0.000;2024-03-07T02:47:44;1.92;;;1.20;;
86116;SDS011;76770;0.000;0.000;2024-03-07T02:50:10;2.10;;;1.10;;
86116;SDS011;76770;0.000;0.000;2024-03-07T02:52:36;1.50;;;1.00;;
86116;SDS011;76770;0.000;0.000;2024-03-07T02:55:02;1.80;;;1.10;;
86116;SDS011;76770;0.000;0.000;2024-03-07T02:57:29;1.67;;;1.10;;
86116;SDS011;76770;0.000;0.000;2024-03-07T02:59:55;1.70;;;1.08;;
86116;SDS011;76770;0.000;0.000;2024-03-07T03:02:22;1.70;;;1.00;;
86116;SDS011;76770;0.000;0.000;2024-03-07T03:04:48;1.77;;;1.10;;
86116;SDS011;76770;0.000;0.000;2024-03-07T03:07:13;1.60;;;1.00;;
86116;SDS011;76770;0.000;0.000;2024-03-07T03:09:39;1.92;;;1.00;;
86116;SDS011;76770;0.000;0.000;2024-03-07T03:12:08;1.67;;;1.02;;
86116;SDS011;76770;0.000;0.000;2024-03-07T03:14:35;1.85;;;0.98;;
86116;SDS011;76770;0.000;0.000;2024-03-07T03:17:01;2.05;;;1.20;;
86116;SDS011;76770;0.000;0.000;2024-03-07T03:19:27;1.23;;;0.90;;
86116;SDS011;76770;0.000;0.000;2024-03-07T03:21:53;1.73;;;1.05;;
86116;SDS011;76770;0.000;0.000;2024-03-07T03:24:20;2.00;;;1.10;;
86116;SDS011;76770;0.000;0.000;2024-03-07T03:26:47;1.60;;;1.08;;
86116;SDS011;76770;0.000;0.000;2024-03-07T03:29:13;1.60;;;0.90;;
86116;SDS011;76770;0.000;0.000;2024-03-07T03:31:41;1.67;;;1.10;;
86116;SDS011;76770;0.000;0.000;2024-03-07T03:34:07;1.30;;;0.90;;
86116;SDS011;76770;0.000;0.000;2024-03-07T03:36:34;1.33;;;0.90;;
86116;SDS011;76770;0.000;0.000;2024-03-07T03:39:00;1.73;;;1.00;;
86116;SDS011;76770;0.000;0.000;2024-03-07T03:41:26;1.63;;;0.95;;
86116;SDS011;76770;0.000;0.000;2024-03-07T03:43:52;1.63;;;1.00;;
86116;SDS011;76770;0.000;0.000;2024-03-07T03:46:18;1.38;;;0.90;;
86116;SDS011;76770;0.000;0.000;2024-03-07T03:48:44;2.10;;;1.00;;
86116;SDS011;76770;0.000;0.000;2024-03-07T03:51:10;1.60;;;0.90;;
86116;SDS011;76770;0.000;0.000;2024-03-07T03:53:38;1.33;;;0.82;;
86116;SDS011;76770;0.000;0.000;2024-03-07T03:56:05;1.52;;;1.00;;
86116;SDS011;76770;0.000;0.000;2024-03-07T03:58:31;1.97;;;0.90;;
86116;SDS011;76770;0.000;0.000;2024-03-07T04:00:57;1.40;;;0.85;;
86116;SDS011;76770;0.000;0.000;2024-03-07T04:03:23;2.28;;;1.00;;
86116;SDS011;76770;0.000;0.000;2024-03-07T04:05:50;1.45;;;1.00;;
86116;SDS011;76770;0.000;0.000;2024-03-07T04:08:16;1.65;;;1.00;;
86116;SDS011;76770;0.000;0.000;2024-03-07T04:10:44;1.13;;;0.88;;
86116;SDS011;76770;0.000;0.000;2024-03-07T04:13:10;1.25;;;0.88;;
86116;SDS011;76770;0.000;0.000;2024-03-07T04:15:36;1.55;;;0.90;;
86116;SDS011;76770;0.000;0.000;2024-03-07T04:18:02;2.03;;;0.90;;
86116;SDS011;76770;0.000;0.000;2024-03-07T04:20:28;1.50;;;0.90;;
86116;SDS011;76770;0.000;0.000;2024-03-07T04:22:54;1.23;;;0.90;;
86116;SDS011;76770;0.000;0.000;2024-03-07T04:25:20;1.38;;;0.98;;
86116;SDS011;76770;0.000;0.000;2024-03-07T04:27:46;1.60;;;0.90;;
86116;SDS011;76770;0.000;0.000;2024-03-07T04:30:14;1.55;;;0.88;;
86116;SDS011;76770;0.000;0.000;2024-03-07T04:32:41;1.25;;;0.90;;
86116;SDS011;76770;0.000;0.000;2024-03-07T04:35:08;1.55;;;1.00;;
86116;SDS011;76770;0.000;0.000;2024-03-07T04:37:35;1.10;;;0.80;;
86116;SDS011;76770;0.000;0.000;2024-03-07T04:40:04;1.30;;;0.80;;
86116;SDS011;76770;0.000;0.000;2024-03-07T04:42:40;1.50;;;0.90;;
86116;SDS011;76770;0.000;0.000;2024-03-07T04:45:06;1.55;;;0.90;;
86116;SDS011;76770;0.000;0.000;2024-03-07T04:47:32;1.35;;;0.90;;
86116;SDS011;76770;0.000;0.000;2024-03-07T04:49:58;1.60;;;0.90;;
86116;SDS011;76770;0.000;0.000;2024-03-07T04:52:24;1.00;;;0.73;;
86116;SDS011;76770;0.000;0.000;2024-03-07T04:54:50;1.00;;;0.77;;
86116;SDS011;76770;0.000;0.000;2024-03-07T04:57:16;1.60;;;0.82;;
86116;SDS011;76770;0.000;0.000;2024-03-07T04:59:44;1.13;;;0.80;;
86116;SDS011;76770;0.000;0.000;2024-03-07T05:02:10;1.20;;;0.85;;
86116;SDS011;76770;0.000;0.000;2024-03-07T05:04:36;1.20;;;0.80;;
86116;SDS011;76770;0.000;0.000;2024-03-07T05:07:02;1.45;;;0.95;;
86116;SDS011;76770;0.000;0.000;2024-03-07T05:09:28;3.40;;;0.80;;
86116;SDS011;76770;0.000;0.000;2024-03-07T05:11:54;1.23;;;0.80;;
86116;SDS011;76770;0.000;0.000;2024-03-07T05:14:21;1.70;;;0.80;;
86116;SDS011;76770;0.000;0.000;2024-03-07T05:16:47;1.75;;;0.90;;
86116;SDS011;76770;0.000;0.000;2024-03-07T05:19:33;1.25;;;0.80;;
86116;SDS011;76770;0.000;0.000;2024-03-07T05:22:00;1.55;;;0.85;;
86116;SDS011;76770;0.000;0.000;2024-03-07T05:24:26;1.00;;;0.80;;
86116;SDS011;76770;0.000;0.000;2024-03-07T05:26:52;1.02;;;0.77;;
86116;SDS011;76770;0.000;0.000;2024-03-07T05:29:19;1.38;;;0.80;;
86116;SDS011;76770;0.000;0.000;2024-03-07T05:31:45;1.38;;;0.88;;
86116;SDS011;76770;0.000;0.000;2024-03-07T05:34:14;1.37;;;0.90;;
86116;SDS011;76770;0.000;0.000;2024-03-07T05:36:43;1.17;;;0.80;;
86116;SDS011;76770;0.000;0.000;2024-03-07T05:39:11;1.35;;;0.90;;
86116;SDS011;76770;0.000;0.000;2024-03-07T05:41:38;1.23;;;0.80;;
86116;SDS011;76770;0.000;0.000;2024-03-07T05:44:04;1.10;;;0.82;;
86116;SDS011;76770;0.000;0.000;2024-03-07T05:46:34;1.30;;;0.93;;
86116;SDS011;76770;0.000;0.000;2024-03-07T05:49:00;1.10;;;0.80;;
86116;SDS011;76770;0.000;0.000;2024-03-07T05:51:26;1.10;;;0.82;;
86116;SDS011;76770;0.000;0.000;2024-03-07T05:53:52;1.50;;;0.80;;
86116;SDS011;76770;0.000;0.000;2024-03-07T05:56:18;1.13;;;0.80;;
86116;SDS011;76770;0.000;0.000;2024-03-07T05:58:44;1.30;;;0.90;;
86116;SDS011;76770;0.000;0.000;2024-03-07T06:01:11;1.73;;;0.80;;
86116;SDS011;76770;0.000;0.000;2024-03-07T06:03:37;1.15;;;0.90;;
86116;SDS011;76770;0.000;0.000;2024-03-07T06:06:04;1.60;;;0.80;;
86116;SDS011;76770;0.000;0.000;2024-03-07T06:08:36;2.47;;;0.90;;
86116;SDS011;76770;0.000;0.000;2024-03-07T06:11:02;1.80;;;0.90;;
86116;SDS011;76770;0.000;0.000;2024-03-07T06:13:28;1.63;;;0.93;;
86116;SDS011;76770;0.000;0.000;2024-03-07T06:15:54;1.97;;;0.90;;
86116;SDS011;76770;0.000;0.000;2024-03-07T06:18:19;1.35;;;0.80;;
86116;SDS011;76770;0.000;0.000;2024-03-07T06:20:45;1.33;;;0.90;;
86116;SDS011;76770;0.000;0.000;2024-03-07T06:23:13;1.40;;;0.88;;
86116;SDS011;76770;0.000;0.000;2024-03-07T06:25:41;1.45;;;0.85;;
86116;SDS011;76770;0.000;0.000;2024-03-07T06:28:17;1.27;;;0.80;;
86116;SDS011;76770;0.000;0.000;2024-03-07T06:30:46;1.48;;;0.80;;
86116;SDS011;76770;0.000;0.000;2024-03-07T06:33:13;1.25;;;0.82;;
86116;SDS011;76770;0.000;0.000;2024-03-07T06:35:39;1.38;;;0.90;;
86116;SDS011;76770;0.000;0.000;2024-03-07T06:38:06;1.67;;;0.85;;
86116;SDS011;76770;0.000;0.000;2024-03-07T06:40:33;1.15;;;0.80;;
86116;SDS011;76770;0.000;0.000;2024-03-07T06:42:59;1.60;;;1.00;;
86116;SDS011;76770;0.000;0.000;2024-03-07T06:45:25;1.50;;;0.87;;
86116;SDS011;76770;0.000;0.000;2024-03-07T06:47:51;2.33;;;0.90;;
86116;SDS011;76770;0.000;0.000;2024-03-07T06:50:18;1.33;;;0.70;;
86116;SDS011;76770;0.000;0.000;2024-03-07T06:52:47;2.40;;;0.90;;
86116;SDS011;76770;0.000;0.000;2024-03-07T06:55:16;1.20;;;0.80;;
86116;SDS011;76770;0.000;0.000;2024-03-07T06:57:45;1.48;;;0.90;;
86116;SDS011;76770;0.000;0.000;2024-03-07T07:00:12;1.10;;;0.80;;
86116;SDS011;76770;0.000;0.000;2024-03-07T07:02:39;1.45;;;0.80;;
86116;SDS011;76770;0.000;0.000;2024-03-07T07:05:06;2.67;;;0.95;;
86116;SDS011;76770;0.000;0.000;2024-03-07T07:07:38;1.63;;;0.90;;
86116;SDS011;76770;0.000;0.000;2024-03-07T07:10:07;1.38;;;0.70;;
86116;SDS011;76770;0.000;0.000;2024-03-07T07:12:36;2.00;;;0.80;;
86116;SDS011;76770;0.000;0.000;2024-03-07T07:15:02;2.63;;;0.80;;
86116;SDS011;76770;0.000;0.000;2024-03-07T07:17:29;1.63;;;0.77;;
86116;SDS011;76770;0.000;0.000;2024-03-07T07:19:56;1.30;;;0.80;;
86116;SDS011;76770;0.000;0.000;2024-03-07T07:22:22;2.77;;;0.70;;
86116;SDS011;76770;0.000;0.000;2024-03-07T07:24:48;1.38;;;0.80;;
86116;SDS011;76770;0.000;0.000;2024-03-07T07:27:15;1.27;;;0.70;;
86116;SDS011;76770;0.000;0.000;2024-03-07T07:29:41;1.60;;;0.80;;
86116;SDS011;76770;0.000;0.000;2024-03-07T07:32:07;1.05;;;0.70;;
86116;SDS011;76770;0.000;0.000;2024-03-07T07:34:36;1.83;;;0.80;;
86116;SDS011;76770;0.000;0.000;2024-03-07T07:37:02;0.90;;;0.70;;
86116;SDS011;76770;0.000;0.000;2024-03-07T07:39:28;1.58;;;0.80;;
86116;SDS011;76770;0.000;0.000;2024-03-07T07:41:54;1.60;;;0.73;;
86116;SDS011;76770;0.000;0.000;2024-03-07T07:44:20;1.05;;;0.70;;
86116;SDS011;76770;0.000;0.000;2024-03-07T07:46:46;1.40;;;0.75;;
86116;SDS011;76770;0.000;0.000;2024-03-07T07:49:14;1.63;;;0.90;;
86116;SDS011;76770;0.000;0.000;2024-03-07T07:51:41;2.50;;;0.70;;
86116;SDS011;76770;0.000;0.000;2024-03-07T07:54:07;1.80;;;0.70;;
86116;SDS011;76770;0.000;0.000;2024-03-07T07:56:34;1.05;;;0.70;;
86116;SDS011;76770;0.000;0.000;2024-03-07T07:59:00;1.20;;;0.70;;
86116;SDS011;76770;0.000;0.000;2024-03-07T08:01:29;1.60;;;0.55;;
86116;SDS011;76770;0.000;0.000;2024-03-07T08:03:55;1.50;;;0.80;;
86116;SDS011;76770;0.000;0.000;2024-03-07T08:06:21;1.20;;;0.70;;
86116;SDS011;76770;0.000;0.000;2024-03-07T08:08:49;1.60;;;0.70;;
86116;SDS011;76770;0.000;0.000;2024-03-07T08:11:15;2.03;;;0.68;;
86116;SDS011;76770;0.000;0.000;2024-03-07T08:13:41;1.67;;;0.80;;
86116;SDS011;76770;0.000;0.000;2024-03-07T08:16:07;1.20;;;0.70;;
86116;SDS011;76770;0.000;0.000;2024-03-07T08:18:33;1.33;;;0.70;;
86116;SDS011;76770;0.000;0.000;2024-03-07T08:20:59;2.58;;;0.70;;
86116;SDS011;76770;0.000;0.000;2024-03-07T08:23:25;0.90;;;0.63;;
86116;SDS011;76770;0.000;0.000;2024-03-07T08:25:53;1.30;;;0.70;;
86116;SDS011;76770;0.000;0.000;2024-03-07T08:28:19;1.13;;;0.77;;
86116;SDS011;76770;0.000;0.000;2024-03-07T08:30:45;1.73;;;0.80;;
86116;SDS011;76770;0.000;0.000;2024-03-07T08:33:11;1.80;;;0.73;;
86116;SDS011;76770;0.000;0.000;2024-03-07T08:35:38;2.10;;;0.75;;
86116;SDS011;76770;0.000;0.000;2024-03-07T08:38:04;1.42;;;0.80;;
86116;SDS011;76770;0.000;0.000;2024-03-07T08:40:30;2.10;;;0.80;;
86116;SDS011;76770;0.000;0.000;2024-03-07T08:42:57;1.98;;;0.80;;
86116;SDS011;76770;0.000;0.000;2024-03-07T08:45:26;2.65;;;1.00;;
86116;SDS011;76770;0.000;0.000;2024-03-07T08:47:53;1.60;;;0.90;;
86116;SDS011;76770;0.000;0.000;2024-03-07T08:50:22;2.40;;;0.90;;
86116;SDS011;76770;0.000;0.000;2024-03-07T08:52:49;2.70;;;0.85;;
86116;SDS011;76770;0.000;0.000;2024-03-07T08:55:16;2.53;;;0.90;;
86116;SDS011;76770;0.000;0.000;2024-03-07T08:57:42;2.03;;;0.90;;
86116;SDS011;76770;0.000;0.000;2024-03-07T09:00:11;1.85;;;0.80;;
86116;SDS011;76770;0.000;0.000;2024-03-07T09:02:47;2.90;;;0.90;;
86116;SDS011;76770;0.000;0.000;2024-03-07T09:05:13;2.08;;;0.90;;
86116;SDS011;76770;0.000;0.000;2024-03-07T09:07:40;1.77;;;0.90;;
86116;SDS011;76770;0.000;0.000;2024-03-07T09:10:06;3.25;;;0.95;;
86116;SDS011;76770;0.000;0.000;2024-03-07T09:12:34;1.95;;;0.93;;
86116;SDS011;76770;0.000;0.000;2024-03-07T09:15:02;1.90;;;0.90;;
86116;SDS011;76770;0.000;0.000;2024-03-07T09:17:28;3.47;;;0.90;;
86116;SDS011;76770;0.000;0.000;2024-03-07T09:19:54;1.17;;;0.73;;
86116;SDS011;76770;0.000;0.000;2024-03-07T09:22:20;1.70;;;0.93;;
86116;SDS011;76770;0.000;0.000;2024-03-07T09:24:46;1.85;;;0.80;;
86116;SDS011;76770;0.000;0.000;2024-03-07T09:27:12;3.40;;;0.80;;
86116;SDS011;76770;0.000;0.000;2024-03-07T09:29:44;2.13;;;1.00;;
86116;SDS011;76770;0.000;0.000;2024-03-07T09:32:13;1.58;;;0.80;;
86116;SDS011;76770;0.000;0.000;2024-03-07T09:34:39;2.38;;;0.90;;
86116;SDS011;76770;0.000;0.000;2024-03-07T09:37:05;2.10;;;0.90;;
86116;SDS011;76770;0.000;0.000;2024-03-07T09:39:34;2.78;;;0.82;;
86116;SDS011;76770;0.000;0.000;2024-03-07T09:42:01;2.10;;;0.90;;
86116;SDS011;76770;0.000;0.000;2024-03-07T09:44:27;3.83;;;0.93;;
86116;SDS011;76770;0.000;0.000;2024-03-07T09:46:56;3.17;;;0.90;;
86116;SDS011;76770;0.000;0.000;2024-03-07T09:49:24;2.33;;;1.00;;
86116;SDS011;76770;0.000;0.000;2024-03-07T09:51:51;2.30;;;0.95;;
86116;SDS011;76770;0.000;0.000;2024-03-07T09:54:20;3.75;;;1.00;;
86116;SDS011;76770;0.000;0.000;2024-03-07T09:56:49;4.00;;;1.00;;
86116;SDS011;76770;0.000;0.000;2024-03-07T09:59:16;17.98;;;2.08;;
86116;SDS011;76770;0.000;0.000;2024-03-07T10:01:45;9.82;;;1.60;;
86116;SDS011;76770;0.000;0.000;2024-03-07T10:04:13;8.00;;;1.48;;
86116;SDS011;76770;0.000;0.000;2024-03-07T10:06:42;7.80;;;1.40;;
86116;SDS011;76770;0.000;0.000;2024-03-07T10:09:10;9.95;;;1.50;;
86116;SDS011;76770;0.000;0.000;2024-03-07T10:11:40;6.95;;;1.30;;
86116;SDS011;76770;0.000;0.000;2024-03-07T10:14:09;8.32;;;1.38;;
86116;SDS011;76770;0.000;0.000;2024-03-07T10:16:36;5.03;;;1.17;;
86116;SDS011;76770;0.000;0.000;2024-03-07T10:19:06;5.65;;;1.40;;
86116;SDS011;76770;0.000;0.000;2024-03-07T10:21:35;7.70;;;1.58;;
86116;SDS011;76770;0.000;0.000;2024-03-07T10:24:08;9.88;;;1.58;;
86116;SDS011;76770;0.000;0.000;2024-03-07T10:26:36;7.43;;;1.40;;
86116;SDS011;76770;0.000;0.000;2024-03-07T10:29:03;8.55;;;1.42;;
86116;SDS011;76770;0.000;0.000;2024-03-07T10:31:33;6.70;;;1.42;;
86116;SDS011;76770;0.000;0.000;2024-03-07T10:34:03;5.60;;;1.45;;
86116;SDS011;76770;0.000;0.000;2024-03-07T10:36:33;6.40;;;1.57;;
86116;SDS011;76770;0.000;0.000;2024-03-07T10:39:00;4.93;;;1.27;;
86116;SDS011;76770;0.000;0.000;2024-03-07T10:41:37;5.07;;;1.40;;
86116;SDS011;76770;0.000;0.000;2024-03-07T10:44:07;5.68;;;1.27;;
86116;SDS011;76770;0.000;0.000;2024-03-07T10:46:35;4.07;;;1.20;;
86116;SDS011;76770;0.000;0.000;2024-03-07T10:49:01;4.97;;;1.30;;
86116;SDS011;76770;0.000;0.000;2024-03-07T10:51:33;4.38;;;1.23;;
86116;SDS011;76770;0.000;0.000;2024-03-07T10:54:13;3.53;;;1.25;;
86116;SDS011;76770;0.000;0.000;2024-03-07T11:01:44;3.80;;;1.20;;
86116;SDS011;76770;0.000;0.000;2024-03-07T11:04:14;4.00;;;1.05;;
86116;SDS011;76770;0.000;0.000;2024-03-07T11:06:40;4.25;;;1.15;;
86116;SDS011;76770;0.000;0.000;2024-03-07T11:09:06;3.60;;;1.13;;
86116;SDS011;76770;0.000;0.000;2024-03-07T11:11:36;5.68;;;1.38;;
86116;SDS011;76770;0.000;0.000;2024-03-07T11:14:05;3.20;;;1.20;;
86116;SDS011;76770;0.000;0.000;2024-03-07T11:16:32;3.13;;;1.10;;
86116;SDS011;76770;0.000;0.000;2024-03-07T11:19:18;4.68;;;1.20;;
86116;SDS011;76770;0.000;0.000;2024-03-07T11:21:47;6.10;;;1.23;;
86116;SDS011;76770;0.000;0.000;2024-03-07T11:24:26;4.13;;;1.20;;
86116;SDS011;76770;0.000;0.000;2024-03-07T11:26:53;7.25;;;1.40;;
86116;SDS011;76770;0.000;0.000;2024-03-07T11:29:39;6.85;;;1.40;;
86116;SDS011;76770;0.000;0.000;2024-03-07T11:32:11;7.80;;;1.55;;
86116;SDS011;76770;0.000;0.000;2024-03-07T11:34:44;7.17;;;1.60;;
86116;SDS011;76770;0.000;0.000;2024-03-07T11:37:16;5.22;;;1.38;;
86116;SDS011;76770;0.000;0.000;2024-03-07T11:39:43;4.50;;;1.20;;
86116;SDS011;76770;0.000;0.000;2024-03-07T11:42:09;4.90;;;1.30;;
86116;SDS011;76770;0.000;0.000;2024-03-07T11:44:35;6.95;;;1.60;;
86116;SDS011;76770;0.000;0.000;2024-03-07T11:47:04;4.93;;;1.45;;
86116;SDS011;76770;0.000;0.000;2024-03-07T11:49:36;8.03;;;1.60;;
86116;SDS011;76770;0.000;0.000;2024-03-07T11:52:05;8.40;;;1.42;;
86116;SDS011;76770;0.000;0.000;2024-03-07T11:54:38;7.68;;;1.40;;
86116;SDS011;76770;0.000;0.000;2024-03-07T11:57:11;9.60;;;1.98;;
86116;SDS011;76770;0.000;0.000;2024-03-07T11:59:41;13.43;;;1.80;;
86116;SDS011;76770;0.000;0.000;2024-03-07T12:02:13;10.90;;;2.00;;
86116;SDS011;76770;0.000;0.000;2024-03-07T12:04:46;10.27;;;2.08;;
86116;SDS011;76770;0.000;0.000;2024-03-07T12:07:12;9.40;;;1.85;;
86116;SDS011;76770;0.000;0.000;2024-03-07T12:09:42;10.65;;;2.03;;
86116;SDS011;76770;0.000;0.000;2024-03-07T12:12:10;10.27;;;1.90;;
86116;SDS011;76770;0.000;0.000;2024-03-07T12:14:37;11.25;;;2.17;;
86116;SDS011;76770;0.000;0.000;2024-03-07T12:17:04;10.30;;;2.20;;
86116;SDS011;76770;0.000;0.000;2024-03-07T12:19:32;12.32;;;2.17;;
86116;SDS011;76770;0.000;0.000;2024-03-07T12:22:01;16.75;;;2.53;;
86116;SDS011;76770;0.000;0.000;2024-03-07T12:24:28;10.38;;;2.13;;
86116;SDS011;76770;0.000;0.000;2024-03-07T12:27:04;9.43;;;1.98;;
86116;SDS011;76770;0.000;0.000;2024-03-07T12:29:30;13.77;;;2.50;;
86116;SDS011;76770;0.000;0.000;2024-03-07T12:31:57;12.40;;;2.35;;
86116;SDS011;76770;0.000;0.000;2024-03-07T12:34:24;15.18;;;2.47;;
86116;SDS011;76770;0.000;0.000;2024-03-07T12:36:52;15.70;;;2.50;;
86116;SDS011;76770;0.000;0.000;2024-03-07T12:39:27;11.80;;;2.42;;
86116;SDS011;76770;0.000;0.000;2024-03-07T12:41:58;9.13;;;2.10;;
86116;SDS011;76770;0.000;0.000;2024-03-07T12:44:24;11.90;;;2.08;;
86116;SDS011;76770;0.000;0.000;2024-03-07T12:46:53;11.35;;;2.25;;
86116;SDS011;76770;0.000;0.000;2024-03-07T12:49:21;9.20;;;1.90;;
86116;SDS011;76770;0.000;0.000;2024-03-07T12:51:51;6.97;;;1.95;;
86116;SDS011;76770;0.000;0.000;2024-03-07T12:54:19;9.83;;;2.07;;
86116;SDS011;76770;0.000;0.000;2024-03-07T12:56:45;9.00;;;1.95;;
86116;SDS011;76770;0.000;0.000;2024-03-07T12:59:11;10.32;;;2.05;;
86116;SDS011;76770;0.000;0.000;2024-03-07T13:01:37;10.35;;;2.10;;
86116;SDS011;76770;0.000;0.000;2024-03-07T13:04:10;7.03;;;1.83;;
86116;SDS011;76770;0.000;0.000;2024-03-07T13:06:36;6.88;;;1.83;;
86116;SDS011;76770;0.000;0.000;2024-03-07T13:09:02;9.05;;;1.90;;
86116;SDS011;76770;0.000;0.000;2024-03-07T13:11:35;7.88;;;1.70;;
86116;SDS011;76770;0.000;0.000;2024-03-07T13:14:05;7.00;;;1.70;;
86116;SDS011;76770;0.000;0.000;2024-03-07T13:16:32;5.82;;;1.55;;
86116;SDS011;76770;0.000;0.000;2024-03-07T13:18:58;6.72;;;1.63;;
86116;SDS011;76770;0.000;0.000;2024-03-07T13:21:24;5.82;;;1.65;;
86116;SDS011;76770;0.000;0.000;2024-03-07T13:23:52;5.00;;;1.60;;
86116;SDS011;76770;0.000;0.000;2024-03-07T13:26:22;5.75;;;1.55;;
86116;SDS011;76770;0.000;0.000;2024-03-07T13:28:53;5.28;;;1.55;;
86116;SDS011;76770;0.000;0.000;2024-03-07T13:31:19;6.43;;;1.60;;
86116;SDS011;76770;0.000;0.000;2024-03-07T13:33:45;5.28;;;1.35;;
86116;SDS011;76770;0.000;0.000;2024-03-07T13:36:12;4.53;;;1.50;;
86116;SDS011;76770;0.000;0.000;2024-03-07T13:38:45;4.32;;;1.30;;
86116;SDS011;76770;0.000;0.000;2024-03-07T13:41:11;4.25;;;1.52;;
86116;SDS011;76770;0.000;0.000;2024-03-07T13:43:38;4.28;;;1.30;;
86116;SDS011;76770;0.000;0.000;2024-03-07T13:46:04;6.03;;;1.40;;
86116;SDS011;76770;0.000;0.000;2024-03-07T13:48:30;3.85;;;1.40;;
86116;SDS011;76770;0.000;0.000;2024-03-07T13:50:58;3.83;;;1.38;;
86116;SDS011;76770;0.000;0.000;2024-03-07T13:53:26;4.13;;;1.30;;
86116;SDS011;76770;0.000;0.000;2024-03-07T13:58:45;7.05;;;1.40;;
86116;SDS011;76770;0.000;0.000;2024-03-07T14:07:22;5.83;;;1.40;;
86116;SDS011;76770;0.000;0.000;2024-03-07T14:12:48;6.45;;;1.63;;
86116;SDS011;76770;0.000;0.000;2024-03-07T14:28:15;3.63;;;1.35;;
86116;SDS011;76770;0.000;0.000;2024-03-07T14:30:52;4.82;;;1.20;;
86116;SDS011;76770;0.000;0.000;2024-03-07T14:33:28;2.75;;;1.10;;
86116;SDS011;76770;0.000;0.000;2024-03-07T14:38:40;3.00;;;1.10;;
86116;SDS011;76770;0.000;0.000;2024-03-07T14:41:08;3.83;;;1.13;;
86116;SDS011;76770;0.000;0.000;2024-03-07T14:43:37;3.80;;;1.00;;
86116;SDS011;76770;0.000;0.000;2024-03-07T14:46:03;3.45;;;1.05;;
86116;SDS011;76770;0.000;0.000;2024-03-07T14:48:30;3.60;;;0.93;;
86116;SDS011;76770;0.000;0.000;2024-03-07T14:50:57;3.13;;;1.00;;
86116;SDS011;76770;0.000;0.000;2024-03-07T14:53:23;2.90;;;1.10;;
86116;SDS011;76770;0.000;0.000;2024-03-07T14:55:49;2.45;;;1.00;;
86116;SDS011;76770;0.000;0.000;2024-03-07T14:58:17;2.90;;;0.90;;
86116;SDS011;76770;0.000;0.000;2024-03-07T15:00:45;2.13;;;1.00;;
86116;SDS011;76770;0.000;0.000;2024-03-07T15:03:15;4.93;;;1.02;;
86116;SDS011;76770;0.000;0.000;2024-03-07T15:05:44;3.00;;;0.80;;
86116;SDS011;76770;0.000;0.000;2024-03-07T15:08:11;5.45;;;1.00;;
86116;SDS011;76770;0.000;0.000;2024-03-07T15:10:38;3.38;;;0.98;;
86116;SDS011;76770;0.000;0.000;2024-03-07T15:13:05;3.42;;;1.10;;
86116;SDS011;76770;0.000;0.000;2024-03-07T15:15:33;3.42;;;0.93;;
86116;SDS011;76770;0.000;0.000;2024-03-07T15:18:01;2.38;;;0.85;;
86116;SDS011;76770;0.000;0.000;2024-03-07T15:20:27;2.47;;;0.80;;
86116;SDS011;76770;0.000;0.000;2024-03-07T15:22:57;2.22;;;0.80;;
86116;SDS011;76770;0.000;0.000;2024-03-07T15:25:24;3.20;;;0.88;;
86116;SDS011;76770;0.000;0.000;2024-03-07T15:27:54;2.50;;;0.90;;
86116;SDS011;76770;0.000;0.000;2024-03-07T15:30:24;2.45;;;0.80;;
86116;SDS011;76770;0.000;0.000;2024-03-07T15:32:57;2.50;;;0.90;;
86116;SDS011;76770;0.000;0.000;2024-03-07T15:35:26;2.00;;;0.70;;